createdAt,value
2019-04-30T00:00:38.317Z,96.70
2019-04-30T00:01:58.777Z,96.70
2019-04-30T00:03:25.033Z,96.60
2019-04-30T00:04:37.517Z,96.70
2019-04-30T00:05:40.083Z,96.70
2019-04-30T00:06:45.417Z,96.70
2019-04-30T00:07:55.070Z,96.70
2019-04-30T00:08:58.499Z,96.70
2019-04-30T00:10:06.018Z,96.80
2019-04-30T00:11:15.153Z,96.70
2019-04-30T00:12:17.661Z,96.80
2019-04-30T00:13:22.866Z,96.80
2019-04-30T00:14:37.313Z,96.70
2019-04-30T00:15:35.703Z,96.70
2019-04-30T00:16:40.876Z,96.70
2019-04-30T00:17:48.821Z,96.50
2019-04-30T00:18:58.227Z,96.60
2019-04-30T00:20:00.105Z,96.50
2019-04-30T00:21:05.559Z,96.50
2019-04-30T00:22:11.983Z,96.60
2019-04-30T00:23:18.018Z,96.50
2019-04-30T00:24:25.975Z,96.50
2019-04-30T00:25:31.291Z,96.50
2019-04-30T00:26:39.907Z,96.50
2019-04-30T00:27:43.137Z,96.50
2019-04-30T00:28:48.222Z,96.50
2019-04-30T00:29:53.372Z,96.50
2019-04-30T00:30:58.488Z,96.50
2019-04-30T00:32:04.989Z,96.60
2019-04-30T00:33:10.509Z,96.50
2019-04-30T00:34:15.591Z,96.50
2019-04-30T00:35:20.692Z,96.60
2019-04-30T00:36:28.875Z,96.60
2019-04-30T00:37:32.794Z,96.60
2019-04-30T00:38:38.021Z,96.60
2019-04-30T00:39:45.718Z,96.60
2019-04-30T00:40:50.018Z,96.60
2019-04-30T00:41:56.661Z,96.50
2019-04-30T00:43:07.577Z,96.50
2019-04-30T00:44:09.089Z,96.50
2019-04-30T00:45:15.450Z,96.50
2019-04-30T00:46:25.486Z,96.60
2019-04-30T00:47:28.545Z,96.50
2019-04-30T00:48:35.580Z,96.50
2019-04-30T00:49:40.462Z,96.50
2019-04-30T00:50:45.773Z,96.50
2019-04-30T00:51:54.699Z,96.50
2019-04-30T00:52:58.924Z,96.50
2019-04-30T00:54:05.681Z,96.40
2019-04-30T00:55:11.020Z,96.40
2019-04-30T00:56:19.971Z,96.60
2019-04-30T00:57:26.340Z,96.80
2019-04-30T00:58:30.413Z,96.70
2019-04-30T00:59:39.519Z,96.80
2019-04-30T01:00:51.293Z,96.80
2019-04-30T01:02:30.844Z,97.00
2019-04-30T01:03:29.451Z,97.00
2019-04-30T01:04:42.216Z,97.10
2019-04-30T01:05:47.983Z,97.10
2019-04-30T01:06:53.313Z,97.10
2019-04-30T01:07:58.439Z,97.20
2019-04-30T01:09:05.531Z,97.30
2019-04-30T01:10:12.112Z,97.30
2019-04-30T01:11:17.443Z,97.30
2019-04-30T01:12:27.525Z,97.30
2019-04-30T01:13:29.528Z,97.40
2019-04-30T01:14:34.648Z,97.40
2019-04-30T01:15:43.908Z,97.40
2019-04-30T01:16:46.553Z,97.50
2019-04-30T01:17:53.703Z,97.50
2019-04-30T01:19:00.863Z,97.50
2019-04-30T01:20:07.024Z,97.60
2019-04-30T01:21:12.137Z,97.80
2019-04-30T01:22:21.276Z,97.80
2019-04-30T01:23:24.057Z,97.90
2019-04-30T01:24:31.703Z,97.90
2019-04-30T01:25:38.776Z,98.00
2019-04-30T01:26:43.792Z,97.90
2019-04-30T01:27:49.186Z,97.90
2019-04-30T01:28:58.502Z,97.90
2019-04-30T01:30:02.613Z,97.90
2019-04-30T01:31:09.135Z,97.90
2019-04-30T01:32:17.344Z,97.90
2019-04-30T01:33:20.994Z,98.00
2019-04-30T01:34:26.120Z,98.00
2019-04-30T01:35:32.654Z,98.00
2019-04-30T01:36:39.276Z,98.10
2019-04-30T01:37:44.384Z,98.10
2019-04-30T01:38:52.452Z,98.10
2019-04-30T01:39:56.244Z,98.10
2019-04-30T01:41:01.341Z,98.10
2019-04-30T01:42:07.971Z,98.00
2019-04-30T01:43:13.335Z,98.00
2019-04-30T01:44:19.526Z,98.00
2019-04-30T01:45:28.115Z,98.00
2019-04-30T01:46:31.732Z,98.00
2019-04-30T01:47:36.834Z,98.10
2019-04-30T01:48:43.731Z,98.10
2019-04-30T01:49:49.532Z,98.00
2019-04-30T01:50:54.820Z,98.00
2019-04-30T01:52:00.987Z,98.00
2019-04-30T01:53:11.448Z,98.00
2019-04-30T01:54:13.817Z,98.00
2019-04-30T01:55:21.519Z,98.00
2019-04-30T01:56:38.949Z,98.00
2019-04-30T01:57:53.478Z,98.00
2019-04-30T01:59:13.295Z,98.20
2019-04-30T02:00:41.196Z,98.00
2019-04-30T02:01:48.627Z,98.00
2019-04-30T02:02:53.537Z,98.00
2019-04-30T02:03:58.712Z,98.10
2019-04-30T02:05:03.878Z,98.10
2019-04-30T02:06:11.425Z,98.10
2019-04-30T02:07:15.992Z,98.10
2019-04-30T02:08:21.033Z,98.10
2019-04-30T02:09:26.152Z,98.10
2019-04-30T02:10:31.272Z,98.00
2019-04-30T02:11:36.309Z,97.90
2019-04-30T02:12:41.443Z,97.90
2019-04-30T02:13:46.468Z,97.80
2019-04-30T02:14:51.817Z,97.80
2019-04-30T02:15:59.100Z,97.80
2019-04-30T02:17:04.012Z,97.80
2019-04-30T02:18:10.096Z,97.90
2019-04-30T02:19:15.117Z,97.90
2019-04-30T02:20:20.456Z,97.90
2019-04-30T02:21:25.735Z,97.90
2019-04-30T02:22:31.260Z,97.90
2019-04-30T02:23:36.580Z,97.90
2019-04-30T02:24:41.963Z,97.90
2019-04-30T02:25:49.033Z,97.90
2019-04-30T02:26:53.937Z,97.90
2019-04-30T02:27:59.275Z,98.00
2019-04-30T02:29:04.551Z,98.10
2019-04-30T02:30:11.147Z,98.10
2019-04-30T02:31:19.454Z,98.20
2019-04-30T02:32:23.599Z,98.30
2019-04-30T02:33:30.637Z,98.40
2019-04-30T02:34:44.246Z,98.50
2019-04-30T02:36:10.477Z,98.50
2019-04-30T02:37:21.056Z,98.50
2019-04-30T02:38:30.242Z,98.50
2019-04-30T02:39:35.433Z,98.50
2019-04-30T02:40:42.693Z,98.60
2019-04-30T02:41:50.636Z,98.60
2019-04-30T02:42:57.940Z,98.80
2019-04-30T02:44:03.773Z,98.80
2019-04-30T02:45:10.443Z,98.90
2019-04-30T02:46:16.379Z,99.00
2019-04-30T02:47:23.699Z,99.10
2019-04-30T02:48:31.735Z,99.00
2019-04-30T02:49:39.832Z,99.00
2019-04-30T02:50:49.131Z,99.00
2019-04-30T02:51:56.414Z,99.00
2019-04-30T02:53:04.458Z,99.00
2019-04-30T02:54:23.843Z,99.10
2019-04-30T02:55:43.611Z,99.20
2019-04-30T02:56:53.331Z,99.10
2019-04-30T02:57:59.554Z,99.00
2019-04-30T02:59:04.720Z,99.00
2019-04-30T03:00:20.341Z,99.20
2019-04-30T03:01:25.024Z,99.10
2019-04-30T03:02:31.342Z,99.20
2019-04-30T03:03:36.366Z,99.10
2019-04-30T03:04:41.384Z,99.20
2019-04-30T03:05:49.559Z,99.20
2019-04-30T03:06:53.351Z,99.20
2019-04-30T03:08:00.478Z,99.20
2019-04-30T03:09:06.850Z,99.20
2019-04-30T03:10:12.164Z,99.20
2019-04-30T03:11:20.285Z,99.20
2019-04-30T03:12:24.341Z,99.20
2019-04-30T03:13:30.079Z,99.20
2019-04-30T03:14:35.287Z,99.20
2019-04-30T03:15:40.314Z,99.20
2019-04-30T03:17:10.268Z,99.10
2019-04-30T03:18:23.610Z,99.20
2019-04-30T03:19:36.994Z,99.20
2019-04-30T03:20:49.962Z,99.20
2019-04-30T03:22:03.142Z,99.20
2019-04-30T03:23:09.857Z,99.20
2019-04-30T03:24:16.390Z,99.10
2019-04-30T03:25:21.647Z,99.10
2019-04-30T03:26:29.614Z,99.10
2019-04-30T03:27:33.579Z,99.10
2019-04-30T03:28:39.630Z,99.10
2019-04-30T03:29:44.995Z,98.90
2019-04-30T03:30:56.336Z,98.90
2019-04-30T03:32:02.052Z,98.80
2019-04-30T03:33:03.960Z,98.80
2019-04-30T03:34:12.346Z,98.70
2019-04-30T03:35:15.950Z,98.60
2019-04-30T03:36:21.956Z,98.60
2019-04-30T03:37:29.421Z,98.60
2019-04-30T03:38:34.187Z,98.50
2019-04-30T03:39:40.155Z,98.50
2019-04-30T03:40:45.429Z,98.50
2019-04-30T03:41:50.629Z,98.40
2019-04-30T03:42:55.691Z,98.30
2019-04-30T03:44:16.440Z,98.20
2019-04-30T03:45:09.971Z,98.30
2019-04-30T03:46:14.424Z,98.20
2019-04-30T03:47:20.215Z,98.10
2019-04-30T03:48:25.624Z,98.10
2019-04-30T03:49:31.072Z,98.10
2019-04-30T03:50:49.282Z,98.10
2019-04-30T03:51:43.049Z,98.10
2019-04-30T03:52:50.383Z,98.10
2019-04-30T03:53:54.928Z,98.10
2019-04-30T03:55:02.846Z,98.10
2019-04-30T03:56:09.368Z,98.20
2019-04-30T03:57:13.844Z,98.10
2019-04-30T03:58:21.162Z,98.10
2019-04-30T03:59:25.604Z,98.10
2019-04-30T04:00:50.354Z,98.20
2019-04-30T04:02:20.562Z,98.20
2019-04-30T04:03:24.244Z,98.10
2019-04-30T04:04:39.684Z,98.10
2019-04-30T04:05:52.030Z,98.10
2019-04-30T04:07:10.325Z,98.10
2019-04-30T04:08:24.490Z,98.10
2019-04-30T04:09:35.428Z,98.10
2019-04-30T04:11:00.498Z,98.10
2019-04-30T04:12:25.149Z,98.10
2019-04-30T04:13:33.124Z,98.10
2019-04-30T04:14:39.404Z,98.00
2019-04-30T04:15:44.104Z,98.10
2019-04-30T04:16:50.867Z,98.10
2019-04-30T04:17:56.036Z,98.00
2019-04-30T04:19:02.928Z,98.00
2019-04-30T04:20:10.615Z,98.00
2019-04-30T04:21:17.106Z,98.00
2019-04-30T04:22:22.935Z,97.90
2019-04-30T04:23:29.652Z,97.90
2019-04-30T04:24:35.079Z,97.90
2019-04-30T04:25:40.250Z,97.80
2019-04-30T04:26:45.341Z,97.80
2019-04-30T04:27:51.039Z,97.70
2019-04-30T04:28:56.320Z,97.70
2019-04-30T04:30:01.534Z,97.70
2019-04-30T04:31:09.466Z,97.60
2019-04-30T04:32:13.941Z,97.60
2019-04-30T04:33:19.963Z,97.60
2019-04-30T04:34:25.413Z,97.60
2019-04-30T04:35:30.553Z,97.50
2019-04-30T04:36:35.717Z,97.50
2019-04-30T04:37:40.879Z,97.50
2019-04-30T04:38:46.050Z,97.50
2019-04-30T04:39:51.168Z,97.40
2019-04-30T04:40:56.213Z,97.50
2019-04-30T04:42:01.466Z,97.40
2019-04-30T04:43:10.196Z,97.30
2019-04-30T04:44:14.351Z,97.40
2019-04-30T04:45:19.970Z,97.20
2019-04-30T04:46:25.270Z,97.10
2019-04-30T04:47:30.984Z,97.00
2019-04-30T04:48:39.439Z,97.00
2019-04-30T04:49:44.281Z,96.90
2019-04-30T04:50:50.154Z,96.90
2019-04-30T04:51:59.042Z,96.80
2019-04-30T04:53:03.365Z,96.80
2019-04-30T04:54:10.336Z,96.70
2019-04-30T04:55:15.273Z,96.70
2019-04-30T04:56:20.409Z,96.50
2019-04-30T04:57:25.797Z,96.60
2019-04-30T04:58:31.104Z,96.60
2019-04-30T04:59:36.329Z,96.60
2019-04-30T05:00:41.433Z,96.60
2019-04-30T05:01:48.820Z,96.60
2019-04-30T05:03:24.837Z,96.50
2019-04-30T05:04:29.993Z,96.60
2019-04-30T05:05:35.109Z,96.50
2019-04-30T05:06:40.294Z,96.40
2019-04-30T05:07:45.300Z,96.50
2019-04-30T05:08:50.405Z,96.50
2019-04-30T05:09:55.532Z,96.50
2019-04-30T05:11:01.801Z,96.40
2019-04-30T05:12:08.526Z,96.30
2019-04-30T05:13:13.739Z,96.30
2019-04-30T05:14:19.116Z,96.30
2019-04-30T05:15:24.453Z,96.20
2019-04-30T05:16:29.624Z,96.20
2019-04-30T05:17:34.776Z,96.20
2019-04-30T05:18:39.885Z,96.20
2019-04-30T05:19:44.910Z,96.30
2019-04-30T05:20:50.116Z,96.20
2019-04-30T05:21:56.293Z,96.20
2019-04-30T05:23:01.400Z,96.20
2019-04-30T05:24:06.468Z,96.20
2019-04-30T05:25:11.589Z,96.20
2019-04-30T05:26:18.940Z,96.20
2019-04-30T05:27:23.679Z,96.10
2019-04-30T05:28:30.165Z,96.10
2019-04-30T05:29:35.396Z,96.10
2019-04-30T05:30:40.561Z,96.20
2019-04-30T05:31:45.647Z,96.10
2019-04-30T05:32:50.987Z,96.10
2019-04-30T05:33:56.219Z,95.90
2019-04-30T05:35:01.240Z,96.00
2019-04-30T05:36:06.447Z,95.90
2019-04-30T05:37:11.648Z,95.80
2019-04-30T05:38:16.725Z,95.80
2019-04-30T05:39:22.177Z,95.80
2019-04-30T05:40:28.759Z,95.80
2019-04-30T05:41:33.957Z,95.80
2019-04-30T05:42:39.033Z,95.80
2019-04-30T05:43:44.229Z,95.60
2019-04-30T05:44:49.849Z,95.40
2019-04-30T05:45:55.136Z,95.40
2019-04-30T05:47:00.288Z,95.40
2019-04-30T05:48:05.478Z,95.50
2019-04-30T05:49:10.664Z,95.60
2019-04-30T05:50:15.812Z,95.70
2019-04-30T05:51:21.382Z,95.60
2019-04-30T05:52:26.676Z,95.60
2019-04-30T05:53:31.725Z,95.60
2019-04-30T05:54:39.076Z,95.50
2019-04-30T05:55:44.381Z,95.50
2019-04-30T05:56:49.460Z,95.50
2019-04-30T05:57:56.519Z,95.40
2019-04-30T05:59:02.129Z,95.50
2019-04-30T06:00:09.850Z,95.50
2019-04-30T06:01:14.418Z,95.30
2019-04-30T06:02:19.613Z,95.30
2019-04-30T06:03:30.248Z,95.30
2019-04-30T06:04:32.762Z,95.20
2019-04-30T06:05:39.421Z,95.10
2019-04-30T06:06:45.217Z,95.20
2019-04-30T06:07:51.980Z,95.30
2019-04-30T06:09:14.751Z,95.40
2019-04-30T06:10:22.873Z,95.10
2019-04-30T06:11:45.567Z,95.10
2019-04-30T06:12:55.404Z,95.00
2019-04-30T06:14:23.713Z,95.10
2019-04-30T06:15:33.107Z,95.20
2019-04-30T06:16:39.326Z,95.30
2019-04-30T06:17:57.982Z,95.20
2019-04-30T06:18:54.387Z,95.20
2019-04-30T06:19:59.506Z,95.20
2019-04-30T06:21:04.861Z,95.10
2019-04-30T06:22:10.883Z,95.10
2019-04-30T06:23:16.309Z,95.00
2019-04-30T06:24:21.472Z,94.90
2019-04-30T06:25:33.702Z,94.80
2019-04-30T06:26:34.301Z,94.80
2019-04-30T06:27:39.601Z,94.70
2019-04-30T06:28:44.740Z,94.90
2019-04-30T06:29:49.959Z,94.90
2019-04-30T06:30:55.602Z,94.90
2019-04-30T06:32:04.392Z,94.80
2019-04-30T06:33:11.770Z,94.50
2019-04-30T06:34:16.923Z,94.20
2019-04-30T06:35:41.041Z,94.40
2019-04-30T06:36:59.511Z,94.60
2019-04-30T06:38:15.964Z,94.70
2019-04-30T06:39:32.504Z,94.90
2019-04-30T06:40:49.809Z,95.00
2019-04-30T06:42:10.109Z,95.10
2019-04-30T06:43:24.159Z,95.00
2019-04-30T06:44:41.835Z,94.90
2019-04-30T06:45:59.178Z,94.80
2019-04-30T06:47:16.149Z,94.80
2019-04-30T06:48:32.912Z,94.60
2019-04-30T06:49:48.894Z,94.50
2019-04-30T06:51:13.152Z,94.20
2019-04-30T06:52:29.553Z,94.20
2019-04-30T06:53:48.923Z,94.20
2019-04-30T06:55:05.140Z,94.00
2019-04-30T06:56:22.305Z,93.80
2019-04-30T06:57:38.776Z,93.80
2019-04-30T06:58:55.180Z,93.50
2019-04-30T07:00:12.429Z,93.60
2019-04-30T07:01:29.163Z,93.60
2019-04-30T07:02:45.734Z,93.60
2019-04-30T07:04:02.501Z,93.10
2019-04-30T07:05:19.141Z,93.30
2019-04-30T07:06:37.036Z,93.50
2019-04-30T07:08:13.968Z,93.30
2019-04-30T07:09:59.212Z,93.30
2019-04-30T07:11:42.346Z,93.20
2019-04-30T07:13:04.599Z,93.00
2019-04-30T07:14:21.586Z,92.90
2019-04-30T07:15:39.454Z,92.80
2019-04-30T07:16:55.812Z,93.00
2019-04-30T07:18:12.690Z,93.30
2019-04-30T07:19:34.716Z,93.40
2019-04-30T07:20:46.024Z,93.10
2019-04-30T07:22:03.125Z,93.40
2019-04-30T07:23:19.798Z,93.60
2019-04-30T07:24:36.452Z,93.60
2019-04-30T07:25:52.803Z,93.60
2019-04-30T07:27:09.470Z,93.60
2019-04-30T07:28:41.322Z,93.40
2019-04-30T07:29:44.885Z,93.50
2019-04-30T07:31:11.698Z,93.50
2019-04-30T07:32:20.580Z,93.50
2019-04-30T07:33:39.613Z,93.20
2019-04-30T07:34:56.458Z,93.30
2019-04-30T07:36:13.047Z,93.30
2019-04-30T07:37:29.908Z,93.20
2019-04-30T07:38:53.786Z,93.10
2019-04-30T07:40:05.571Z,93.00
2019-04-30T07:41:22.600Z,92.90
2019-04-30T07:42:44.690Z,92.80
2019-04-30T07:43:59.348Z,92.90
2019-04-30T07:45:16.434Z,92.80
2019-04-30T07:46:35.067Z,92.80
2019-04-30T07:47:51.105Z,92.90
2019-04-30T07:49:10.068Z,93.20
2019-04-30T07:50:27.562Z,93.10
2019-04-30T07:51:46.468Z,93.20
2019-04-30T07:53:06.625Z,93.30
2019-04-30T07:54:21.384Z,93.30
2019-04-30T07:55:36.638Z,93.30
2019-04-30T07:57:00.879Z,93.20
2019-04-30T07:58:20.190Z,93.30
2019-04-30T07:59:35.977Z,93.30
2019-04-30T08:00:56.304Z,93.40
2019-04-30T08:02:14.663Z,93.40
2019-04-30T08:03:50.052Z,93.10
2019-04-30T08:06:52.781Z,92.90
2019-04-30T08:08:21.134Z,92.90
2019-04-30T08:09:38.722Z,92.90
2019-04-30T08:10:50.608Z,92.60
2019-04-30T08:12:07.009Z,92.50
2019-04-30T08:13:25.242Z,92.60
2019-04-30T08:14:42.008Z,92.60
2019-04-30T08:15:59.641Z,92.50
2019-04-30T08:17:18.725Z,92.40
2019-04-30T08:18:34.913Z,92.40
2019-04-30T08:19:51.582Z,92.30
2019-04-30T08:21:09.457Z,92.20
2019-04-30T08:22:25.872Z,92.10
2019-04-30T08:23:42.471Z,92.20
2019-04-30T08:24:59.105Z,92.20
2019-04-30T08:26:15.637Z,92.10
2019-04-30T08:27:31.956Z,92.20
2019-04-30T08:28:50.253Z,92.10
2019-04-30T08:30:21.049Z,92.10
2019-04-30T08:31:25.895Z,92.20
2019-04-30T08:32:42.559Z,92.30
2019-04-30T08:33:59.268Z,92.40
2019-04-30T08:35:15.916Z,92.60
2019-04-30T08:36:33.179Z,92.40
2019-04-30T08:37:49.965Z,92.20
2019-04-30T08:39:06.532Z,92.20
2019-04-30T08:40:23.060Z,92.30
2019-04-30T08:41:39.532Z,92.30
2019-04-30T08:42:56.685Z,92.30
2019-04-30T08:44:14.084Z,92.00
2019-04-30T08:45:33.194Z,92.10
2019-04-30T08:46:49.205Z,92.00
2019-04-30T08:48:06.160Z,91.90
2019-04-30T08:49:23.268Z,91.80
2019-04-30T08:50:40.527Z,91.50
2019-04-30T08:51:58.699Z,91.30
2019-04-30T08:53:26.684Z,91.10
2019-04-30T08:54:34.654Z,90.90
2019-04-30T08:55:59.138Z,90.80
2019-04-30T08:57:36.189Z,90.90
2019-04-30T08:58:54.856Z,90.80
2019-04-30T09:00:11.871Z,90.80
2019-04-30T09:01:29.848Z,90.80
2019-04-30T09:02:46.374Z,90.60
2019-04-30T09:04:03.029Z,90.40
2019-04-30T09:07:12.246Z,90.40
2019-04-30T09:08:29.472Z,90.30
2019-04-30T09:09:46.398Z,90.20
2019-04-30T09:11:04.576Z,89.90
2019-04-30T09:12:21.040Z,89.70
2019-04-30T09:13:38.940Z,89.30
2019-04-30T09:14:55.526Z,88.90
2019-04-30T09:16:11.944Z,88.60
2019-04-30T09:17:19.927Z,88.50
2019-04-30T09:20:01.976Z,87.80
2019-04-30T09:21:19.316Z,87.00
2019-04-30T09:22:35.801Z,86.50
2019-04-30T09:23:55.234Z,86.30
2019-04-30T09:25:12.739Z,86.50
2019-04-30T09:26:29.231Z,86.20
2019-04-30T09:27:46.036Z,85.80
2019-04-30T09:29:03.070Z,86.10
2019-04-30T09:30:20.294Z,86.50
2019-04-30T09:31:40.810Z,85.40
2019-04-30T09:32:56.301Z,85.00
2019-04-30T09:34:17.088Z,84.90
2019-04-30T09:35:32.284Z,85.20
2019-04-30T09:36:49.076Z,84.80
2019-04-30T09:38:05.477Z,85.10
2019-04-30T09:39:23.151Z,84.50
2019-04-30T09:40:41.763Z,83.40
2019-04-30T09:41:59.597Z,82.90
2019-04-30T09:43:16.073Z,82.40
2019-04-30T09:44:32.521Z,82.30
2019-04-30T09:45:49.846Z,82.80
2019-04-30T09:47:06.267Z,82.80
2019-04-30T09:48:22.669Z,82.60
2019-04-30T09:49:41.371Z,82.40
2019-04-30T09:51:00.258Z,80.90
2019-04-30T09:52:16.052Z,80.80
2019-04-30T09:53:32.829Z,80.30
2019-04-30T09:54:50.927Z,80.10
2019-04-30T09:55:56.282Z,80.00
2019-04-30T09:57:20.569Z,79.90
2019-04-30T09:58:37.059Z,79.50
2019-04-30T09:59:54.150Z,78.80
2019-04-30T10:01:10.690Z,78.60
2019-04-30T10:02:29.092Z,78.30
2019-04-30T10:03:45.679Z,78.20
2019-04-30T10:05:03.228Z,77.80
2019-04-30T10:06:20.138Z,77.40
2019-04-30T10:07:39.338Z,77.80
2019-04-30T10:08:56.401Z,77.40
2019-04-30T10:10:15.274Z,77.20
2019-04-30T10:11:50.657Z,77.30
2019-04-30T10:13:07.041Z,76.50
2019-04-30T10:14:22.318Z,75.50
2019-04-30T10:17:48.548Z,74.20
2019-04-30T10:19:04.967Z,74.30
2019-04-30T10:20:23.044Z,74.40
2019-04-30T10:21:39.740Z,74.10
2019-04-30T10:22:56.276Z,73.80
2019-04-30T10:24:15.718Z,74.90
2019-04-30T10:25:31.866Z,75.20
2019-04-30T10:26:48.528Z,75.50
2019-04-30T10:28:05.317Z,75.10
2019-04-30T10:29:21.619Z,74.50
2019-04-30T10:30:38.036Z,74.00
2019-04-30T10:31:54.437Z,73.70
2019-04-30T10:33:11.610Z,74.00
2019-04-30T10:34:28.170Z,74.00
2019-04-30T10:35:44.754Z,73.70
2019-04-30T10:37:02.992Z,73.20
2019-04-30T10:39:38.772Z,72.10
2019-04-30T10:40:54.882Z,71.20
2019-04-30T10:42:12.176Z,70.50
2019-04-30T10:43:31.991Z,70.00
2019-04-30T10:44:47.800Z,69.80
2019-04-30T10:46:04.157Z,69.20
2019-04-30T10:47:20.995Z,66.90
2019-04-30T10:48:38.253Z,65.80
2019-04-30T10:49:54.738Z,64.50
2019-04-30T10:51:11.020Z,64.20
2019-04-30T10:52:29.177Z,63.00
2019-04-30T10:53:46.385Z,61.10
2019-04-30T10:55:04.538Z,60.60
2019-04-30T10:56:21.910Z,60.00
2019-04-30T10:57:39.666Z,58.90
2019-04-30T10:58:56.401Z,56.80
2019-04-30T11:00:12.926Z,55.40
2019-04-30T11:01:29.394Z,54.90
2019-04-30T11:02:46.553Z,54.10
2019-04-30T11:04:03.101Z,53.60
2019-04-30T11:05:21.156Z,54.50
2019-04-30T11:06:39.031Z,53.60
2019-04-30T11:07:55.601Z,54.30
2019-04-30T11:09:12.884Z,54.80
2019-04-30T11:10:33.450Z,55.60
2019-04-30T11:11:49.954Z,56.00
2019-04-30T11:13:06.930Z,57.20
2019-04-30T11:14:24.241Z,58.00
2019-04-30T11:15:41.004Z,56.40
2019-04-30T11:16:59.863Z,55.40
2019-04-30T11:18:16.812Z,55.50
2019-04-30T11:19:33.631Z,54.10
2019-04-30T11:20:50.369Z,54.90
2019-04-30T11:22:07.346Z,54.60
2019-04-30T11:23:24.134Z,54.90
2019-04-30T11:24:56.497Z,55.50
2019-04-30T11:26:00.705Z,57.10
2019-04-30T11:27:20.281Z,55.50
2019-04-30T11:28:36.846Z,54.70
2019-04-30T11:30:00.551Z,55.30
2019-04-30T11:31:34.057Z,53.70
2019-04-30T11:33:01.038Z,49.40
2019-04-30T11:34:18.525Z,47.70
2019-04-30T11:35:35.416Z,46.50
2019-04-30T11:36:52.300Z,46.90
2019-04-30T11:38:08.664Z,48.20
2019-04-30T11:39:25.917Z,49.50
2019-04-30T11:41:58.440Z,50.30
2019-04-30T11:43:15.486Z,50.90
2019-04-30T11:44:32.178Z,50.90
2019-04-30T11:45:49.571Z,50.40
2019-04-30T11:47:05.950Z,50.70
2019-04-30T11:48:21.352Z,50.30
2019-04-30T11:49:45.555Z,50.20
2019-04-30T11:51:01.917Z,49.90
2019-04-30T11:52:19.208Z,50.20
2019-04-30T11:53:38.910Z,51.30
2019-04-30T11:54:55.110Z,50.70
2019-04-30T11:56:11.599Z,50.80
2019-04-30T11:57:29.812Z,50.20
2019-04-30T11:58:46.528Z,49.00
2019-04-30T12:00:02.979Z,48.20
2019-04-30T12:01:22.798Z,50.20
2019-04-30T12:02:41.509Z,50.40
2019-04-30T12:03:59.666Z,51.50
2019-04-30T12:05:16.810Z,52.10
2019-04-30T12:06:34.064Z,53.30
2019-04-30T12:08:15.406Z,53.50
2019-04-30T12:09:53.929Z,53.90
2019-04-30T12:11:20.325Z,53.90
2019-04-30T12:12:38.814Z,54.10
2019-04-30T12:13:55.579Z,53.50
2019-04-30T12:15:02.734Z,53.90
2019-04-30T12:16:33.707Z,52.80
2019-04-30T12:17:55.889Z,51.60
2019-04-30T12:19:12.323Z,52.00
2019-04-30T12:20:28.782Z,52.00
2019-04-30T12:21:46.546Z,51.10
2019-04-30T12:23:03.205Z,49.10
2019-04-30T12:24:20.043Z,49.00
2019-04-30T12:25:38.806Z,49.20
2019-04-30T12:26:55.998Z,48.80
2019-04-30T12:28:12.394Z,49.00
2019-04-30T12:29:29.314Z,49.50
2019-04-30T12:30:46.083Z,49.90
2019-04-30T12:32:02.517Z,49.90
2019-04-30T12:33:19.683Z,49.80
2019-04-30T12:34:36.732Z,49.40
2019-04-30T12:35:53.325Z,51.70
2019-04-30T12:37:10.790Z,52.30
2019-04-30T12:38:27.224Z,50.30
2019-04-30T12:39:44.526Z,50.10
2019-04-30T12:41:01.777Z,49.60
2019-04-30T12:42:18.869Z,50.60
2019-04-30T12:43:35.858Z,50.50
2019-04-30T12:44:53.125Z,49.50
2019-04-30T12:46:09.963Z,49.30
2019-04-30T12:47:29.518Z,49.80
2019-04-30T12:49:05.816Z,49.70
2019-04-30T12:52:35.373Z,49.70
2019-04-30T12:59:18.177Z,48.30
2019-04-30T13:00:34.712Z,48.30
2019-04-30T13:01:51.996Z,47.30
2019-04-30T13:03:08.861Z,46.40
2019-04-30T13:04:25.328Z,47.40
2019-04-30T13:05:42.965Z,48.00
2019-04-30T13:07:02.321Z,47.20
2019-04-30T13:08:20.833Z,47.70
2019-04-30T13:09:39.596Z,47.50
2019-04-30T13:10:56.110Z,47.80
2019-04-30T13:12:14.453Z,48.70
2019-04-30T13:13:33.038Z,48.50
2019-04-30T13:14:52.350Z,49.10
2019-04-30T13:16:15.331Z,49.00
2019-04-30T13:17:39.668Z,50.30
2019-04-30T13:18:56.277Z,51.10
2019-04-30T13:20:20.861Z,51.40
2019-04-30T13:21:31.961Z,52.00
2019-04-30T13:22:48.892Z,51.70
2019-04-30T13:24:05.526Z,52.60
2019-04-30T13:25:32.344Z,52.70
2019-04-30T13:26:41.124Z,50.90
2019-04-30T13:28:03.560Z,52.10
2019-04-30T13:29:25.511Z,51.60
2019-04-30T13:30:49.807Z,51.30
2019-04-30T13:32:30.029Z,50.00
2019-04-30T13:33:50.799Z,49.90
2019-04-30T13:35:09.102Z,49.30
2019-04-30T13:36:25.762Z,49.70
2019-04-30T13:37:48.939Z,49.40
2019-04-30T13:39:31.562Z,48.30
2019-04-30T13:41:09.648Z,48.00
2019-04-30T13:42:48.774Z,49.00
2019-04-30T13:44:43.797Z,48.90
2019-04-30T13:46:00.240Z,49.30
2019-04-30T13:47:16.842Z,50.10
2019-04-30T13:48:34.001Z,50.00
2019-04-30T13:49:50.580Z,51.00
2019-04-30T13:51:07.012Z,50.30
2019-04-30T13:52:23.485Z,48.30
2019-04-30T13:53:40.728Z,47.60
2019-04-30T13:54:57.265Z,46.70
2019-04-30T13:59:51.068Z,44.10
2019-04-30T14:01:07.717Z,45.20
2019-04-30T14:02:25.064Z,44.40
2019-04-30T14:05:30.188Z,45.80
2019-04-30T14:08:55.507Z,44.50
2019-04-30T14:10:12.769Z,46.00
2019-04-30T14:11:29.360Z,46.00
2019-04-30T14:14:39.412Z,44.20
2019-04-30T14:15:56.943Z,44.30
2019-04-30T14:17:13.317Z,44.40
2019-04-30T14:18:33.794Z,43.70
2019-04-30T14:19:46.837Z,43.70
2019-04-30T14:21:03.407Z,44.80
2019-04-30T14:22:19.839Z,43.80
2019-04-30T14:23:36.301Z,43.80
2019-04-30T14:24:52.746Z,43.10
2019-04-30T14:26:09.912Z,42.80
2019-04-30T14:27:26.716Z,43.50
2019-04-30T14:28:43.266Z,44.40
2019-04-30T14:29:59.677Z,44.00
2019-04-30T14:31:16.318Z,43.90
2019-04-30T14:32:36.022Z,43.50
2019-04-30T14:33:52.475Z,43.50
2019-04-30T14:35:09.167Z,43.90
2019-04-30T14:36:25.826Z,44.50
2019-04-30T14:37:42.429Z,44.40
2019-04-30T14:39:12.966Z,44.80
2019-04-30T14:40:20.333Z,44.10
2019-04-30T14:41:39.711Z,43.50
2019-04-30T14:43:14.722Z,42.30
2019-04-30T14:44:33.127Z,41.80
2019-04-30T14:50:01.818Z,42.80
2019-04-30T14:51:13.694Z,42.70
2019-04-30T14:52:33.515Z,40.70
2019-04-30T14:54:07.039Z,41.40
2019-04-30T14:55:42.397Z,41.00
2019-04-30T14:57:05.992Z,41.10
2019-04-30T14:58:42.229Z,41.00
2019-04-30T15:01:44.717Z,41.80
2019-04-30T15:03:20.275Z,41.30
2019-04-30T15:04:36.558Z,40.40
2019-04-30T15:05:51.845Z,41.60
2019-04-30T15:07:16.089Z,41.40
2019-04-30T15:08:33.060Z,41.40
2019-04-30T15:09:49.528Z,41.40
2019-04-30T15:11:06.534Z,41.30
2019-04-30T15:12:23.292Z,41.50
2019-04-30T15:13:39.658Z,41.80
2019-04-30T15:14:56.303Z,41.90
2019-04-30T15:16:12.707Z,41.40
2019-04-30T15:17:29.911Z,41.70
2019-04-30T15:18:46.389Z,41.70
2019-04-30T15:20:02.926Z,41.20
2019-04-30T15:21:20.123Z,41.50
2019-04-30T15:22:39.648Z,43.40
2019-04-30T15:25:12.985Z,43.60
2019-04-30T15:26:29.610Z,43.70
2019-04-30T15:27:49.583Z,43.80
2019-04-30T15:29:11.692Z,42.20
2019-04-30T15:30:24.785Z,42.50
2019-04-30T15:31:42.686Z,42.90
2019-04-30T15:34:42.481Z,44.30
2019-04-30T15:36:06.712Z,43.00
2019-04-30T15:37:30.910Z,42.80
2019-04-30T15:39:06.720Z,42.80
2019-04-30T15:40:25.089Z,42.80
2019-04-30T15:41:41.790Z,43.50
2019-04-30T15:44:49.651Z,43.10
2019-04-30T15:46:06.965Z,43.20
2019-04-30T15:47:22.663Z,43.00
2019-04-30T15:48:46.886Z,43.40
2019-04-30T15:51:19.326Z,43.40
2019-04-30T15:52:35.684Z,43.20
2019-04-30T15:53:52.120Z,42.80
2019-04-30T15:55:10.886Z,42.40
2019-04-30T15:56:35.221Z,42.70
2019-04-30T15:58:05.093Z,42.80
2019-04-30T16:01:11.762Z,42.90
2019-04-30T16:02:35.025Z,43.30
2019-04-30T16:03:59.227Z,43.50
2019-04-30T16:06:56.068Z,44.30
2019-04-30T16:08:12.673Z,43.90
2019-04-30T16:09:35.690Z,43.40
2019-04-30T16:11:11.621Z,43.40
2019-04-30T16:12:34.708Z,42.90
2019-04-30T16:14:10.182Z,43.10
2019-04-30T16:15:26.564Z,43.20
2019-04-30T16:16:46.379Z,43.30
2019-04-30T16:18:03.801Z,43.70
2019-04-30T16:19:20.425Z,44.20
2019-04-30T16:20:39.208Z,44.10
2019-04-30T16:21:56.470Z,44.00
2019-04-30T16:23:12.775Z,44.20
2019-04-30T16:24:29.202Z,44.60
2019-04-30T16:25:45.897Z,44.90
2019-04-30T16:27:02.859Z,44.60
2019-04-30T16:28:19.937Z,44.60
2019-04-30T16:29:36.337Z,44.40